Time;durP1;ratioP1;P1;durP2;ratioP2;P2;SDS_P1;SDS_P2;PMS_P1;PMS_P2;Temp;Humidity;BMP_temperature;BMP_pressure;BME280_temperature;BME280_humidity;BME280_pressure;Samples;Min_cycle;Max_cycle;Signal;HPM_P1;HPM_P2
2022/08/18 00:01:39;;;;;;;11.07;6.05;;;22.10;73.00;;;;;;5053548;28;20450;-67
2022/08/18 00:04:09;;;;;;;10.43;5.72;;;22.10;73.10;;;;;;5070992;28;20032;-68
2022/08/18 00:06:34;;;;;;;8.93;5.68;;;22.00;73.20;;;;;;5071326;28;20036;-67
2022/08/18 00:09:03;;;;;;;8.32;4.88;;;22.00;73.30;;;;;;5063932;28;20529;-67
2022/08/18 00:11:33;;;;;;;9.93;4.60;;;22.00;73.30;;;;;;5091164;28;20023;-67
2022/08/18 00:13:59;;;;;;;8.05;5.47;;;22.00;73.50;;;;;;5072641;28;20139;-68
2022/08/18 00:16:24;;;;;;;6.75;5.15;;;22.00;73.50;;;;;;5092039;28;20543;-67
2022/08/18 00:18:50;;;;;;;12.00;6.07;;;22.00;73.60;;;;;;5091270;28;20028;-67
2022/08/18 00:21:17;;;;;;;9.40;5.88;;;22.00;73.70;;;;;;5091002;28;20381;-68
2022/08/18 00:27:09;;;;;;;7.18;5.60;;;22.00;73.80;;;;;;5117924;22;20078;-67
2022/08/18 00:29:35;;;;;;;11.52;5.47;;;22.00;73.90;;;;;;5072674;28;20120;-66
2022/08/18 00:32:11;;;;;;;7.50;5.20;;;22.00;74.00;;;;;;5091554;28;20525;-67
2022/08/18 00:34:37;;;;;;;7.20;5.05;;;22.00;74.00;;;;;;5090539;28;20039;-66
2022/08/18 00:37:02;;;;;;;9.35;5.65;;;22.00;74.10;;;;;;5090804;28;20099;-66
2022/08/18 00:39:29;;;;;;;11.27;6.38;;;22.00;74.10;;;;;;5071041;28;20025;-66
2022/08/18 00:41:55;;;;;;;12.77;4.97;;;21.90;74.10;;;;;;5089988;28;20068;-66
2022/08/18 00:44:20;;;;;;;9.35;5.38;;;22.00;74.30;;;;;;5090185;28;20063;-66
2022/08/18 00:46:46;;;;;;;8.82;5.78;;;22.00;74.40;;;;;;5090576;28;20020;-66
2022/08/18 00:49:15;;;;;;;9.48;6.05;;;22.00;74.50;;;;;;5090669;28;20053;-66
2022/08/18 00:51:47;;;;;;;10.88;6.07;;;22.00;74.50;;;;;;5090790;28;20123;-66
2022/08/18 00:54:21;;;;;;;18.60;6.97;;;21.90;74.40;;;;;;5089643;28;20028;-66
2022/08/18 00:56:54;;;;;;;8.88;6.13;;;22.00;74.60;;;;;;5052333;28;20024;-66
2022/08/18 00:59:44;;;;;;;8.27;5.40;;;21.90;74.60;;;;;;5070517;28;20045;-66
2022/08/18 01:02:13;;;;;;;;;;;21.90;74.70;;;;;;5055826;28;20033;-66
2022/08/18 01:05:04;;;;;;;9.90;6.55;;;21.90;74.80;;;;;;5069183;28;19905;-66
2022/08/18 01:07:36;;;;;;;7.60;5.95;;;21.90;74.80;;;;;;5070088;28;20035;-66
2022/08/18 01:10:04;;;;;;;12.13;7.00;;;21.90;74.90;;;;;;5069456;28;20035;-66
2022/08/18 01:12:31;;;;;;;11.10;6.13;;;21.90;75.00;;;;;;5070241;28;20441;-66
2022/08/18 01:14:57;;;;;;;11.15;5.88;;;21.90;75.00;;;;;;5083975;28;20027;-67
2022/08/18 01:23:07;;;;;;;11.07;6.50;;;21.90;75.50;;;;;;5089885;28;20031;-67
2022/08/18 01:28:19;;;;;;;8.50;6.20;;;21.90;75.40;;;;;;5090167;28;20047;-66
2022/08/18 01:30:48;;;;;;;10.77;6.68;;;21.90;75.50;;;;;;5089886;28;20111;-66
2022/08/18 01:33:16;;;;;;;10.48;6.07;;;21.90;75.50;;;;;;5089650;28;20089;-67
2022/08/18 01:35:47;;;;;;;12.65;6.15;;;21.90;75.60;;;;;;5089993;28;20077;-66
2022/08/18 01:38:12;;;;;;;9.23;6.35;;;21.90;75.50;;;;;;5071963;28;20051;-66
2022/08/18 01:40:38;;;;;;;9.40;5.90;;;21.90;75.60;;;;;;5063277;28;20465;-66
2022/08/18 01:43:04;;;;;;;9.25;6.20;;;21.90;75.70;;;;;;5084511;28;20473;-66
2022/08/18 01:45:32;;;;;;;9.07;6.70;;;21.90;75.80;;;;;;5089991;28;20480;-66
2022/08/18 01:47:58;;;;;;;14.50;8.15;;;21.80;75.80;;;;;;5089605;28;20416;-67
2022/08/18 01:50:24;;;;;;;13.13;7.32;;;21.90;75.80;;;;;;5089750;28;20081;-67
2022/08/18 01:52:52;;;;;;;13.88;8.10;;;21.90;75.80;;;;;;5071926;28;20445;-66
2022/08/18 01:55:18;;;;;;;15.13;8.02;;;21.90;75.90;;;;;;5091156;28;20094;-66
2022/08/18 01:57:44;;;;;;;11.68;8.10;;;21.80;75.90;;;;;;5075813;28;20415;-66
2022/08/18 02:00:13;;;;;;;14.43;8.77;;;21.80;75.90;;;;;;5094083;28;20069;-66
2022/08/18 02:02:40;;;;;;;16.42;10.02;;;21.80;76.00;;;;;;5094570;28;20052;-66
2022/08/18 02:05:10;;;;;;;8.77;6.78;;;21.80;76.00;;;;;;5093414;28;20077;-66
2022/08/18 02:07:36;;;;;;;;;;;21.80;76.20;;;;;;5094628;28;20024;-66
2022/08/18 02:10:05;;;;;;;13.43;7.90;;;21.80;76.30;;;;;;5086440;28;19965;-67
2022/08/18 02:12:32;;;;;;;17.83;7.33;;;21.80;76.30;;;;;;5073585;28;20264;-66
2022/08/18 02:14:57;;;;;;;11.18;7.85;;;21.80;76.40;;;;;;5072918;28;20091;-68
2022/08/18 02:17:23;;;;;;;10.40;7.25;;;21.70;76.40;;;;;;5073207;28;20512;-66
2022/08/18 02:19:49;;;;;;;11.68;7.18;;;21.80;76.50;;;;;;5072908;28;20465;-66
2022/08/18 02:22:17;;;;;;;14.45;8.13;;;21.80;76.50;;;;;;5072851;28;20031;-66
2022/08/18 02:24:43;;;;;;;12.13;7.55;;;21.80;76.60;;;;;;5072710;28;20060;-66
2022/08/18 02:27:11;;;;;;;18.20;9.38;;;21.80;76.70;;;;;;5072558;28;20028;-66
2022/08/18 02:29:37;;;;;;;15.82;9.43;;;21.80;76.70;;;;;;5086051;28;20042;-67
2022/08/18 02:32:04;;;;;;;16.85;8.90;;;21.80;76.70;;;;;;5075140;28;20476;-66
2022/08/18 02:34:30;;;;;;;13.60;8.43;;;21.80;76.80;;;;;;5074470;28;20036;-66
2022/08/18 02:36:57;;;;;;;14.73;8.38;;;21.80;76.80;;;;;;5093201;28;20028;-66
2022/08/18 02:39:23;;;;;;;14.10;8.20;;;21.80;76.90;;;;;;5092746;28;20480;-66
2022/08/18 02:41:48;;;;;;;15.05;8.23;;;21.80;77.00;;;;;;5079836;28;20033;-66
2022/08/18 02:44:14;;;;;;;12.05;8.52;;;21.80;77.00;;;;;;5072054;28;20048;-66
2022/08/18 02:46:40;;;;;;;12.38;8.48;;;21.70;76.90;;;;;;5054928;28;20491;-66
2022/08/18 02:49:06;;;;;;;12.18;7.22;;;21.70;76.90;;;;;;5072669;28;20017;-66
2022/08/18 02:51:32;;;;;;;10.73;8.07;;;21.70;77.00;;;;;;5072519;28;20060;-65
2022/08/18 02:53:58;;;;;;;10.23;7.35;;;21.70;77.00;;;;;;5072181;28;20048;-66
2022/08/18 02:56:27;;;;;;;10.32;7.35;;;21.70;77.00;;;;;;5054140;28;20028;-67
2022/08/18 02:59:02;;;;;;;11.98;8.35;;;21.70;77.00;;;;;;5054246;28;20043;-66
2022/08/18 03:01:31;;;;;;;14.30;8.38;;;21.70;77.10;;;;;;5072148;28;20033;-66
2022/08/18 03:03:59;;;;;;;12.27;8.15;;;21.70;77.10;;;;;;5071904;28;20024;-67
2022/08/18 03:06:26;;;;;;;12.55;7.70;;;21.70;77.10;;;;;;5071751;28;20024;-66
2022/08/18 03:08:53;;;;;;;10.18;7.47;;;21.70;77.20;;;;;;5072604;28;20068;-66
2022/08/18 03:11:26;;;;;;;11.90;7.70;;;21.70;77.20;;;;;;5070876;28;20370;-66
2022/08/18 03:13:52;;;;;;;14.75;8.02;;;21.70;77.20;;;;;;5071905;28;20113;-66
2022/08/18 03:16:20;;;;;;;13.10;8.18;;;21.60;77.10;;;;;;5072160;28;20213;-66
2022/08/18 03:18:46;;;;;;;11.82;8.10;;;21.70;77.20;;;;;;5054119;28;20035;-66
2022/08/18 03:21:20;;;;;;;13.82;7.10;;;21.70;77.30;;;;;;5054101;28;20052;-66
2022/08/18 03:23:46;;;;;;;12.50;7.22;;;21.60;77.30;;;;;;5053656;28;20039;-66
2022/08/18 03:26:13;;;;;;;15.60;7.55;;;21.60;77.30;;;;;;5071568;28;20028;-66
2022/08/18 03:28:44;;;;;;;11.35;7.25;;;21.60;77.30;;;;;;5053532;28;20055;-66
2022/08/18 03:31:16;;;;;;;12.10;6.80;;;21.60;77.30;;;;;;5072263;28;20084;-66
2022/08/18 03:33:42;;;;;;;9.93;6.60;;;21.60;77.50;;;;;;5071620;28;20036;-66
2022/08/18 03:36:16;;;;;;;10.07;6.05;;;21.60;77.50;;;;;;5053600;28;20095;-66
2022/08/18 03:38:43;;;;;;;14.15;6.70;;;21.60;77.50;;;;;;5053703;28;20087;-66
2022/08/18 03:41:14;;;;;;;12.63;7.55;;;21.60;77.50;;;;;;5086820;28;20079;-66
2022/08/18 03:43:40;;;;;;;9.18;6.70;;;21.60;77.50;;;;;;5053311;28;20362;-66
2022/08/18 03:46:08;;;;;;;12.48;7.40;;;21.60;77.50;;;;;;5071498;28;20038;-66
2022/08/18 03:48:37;;;;;;;11.00;7.18;;;21.60;77.50;;;;;;5053793;28;20401;-66
2022/08/18 03:51:09;;;;;;;10.43;6.57;;;21.60;77.60;;;;;;5053249;28;20474;-66
2022/08/18 03:53:36;;;;;;;11.90;6.45;;;21.60;77.50;;;;;;5071032;28;20028;-66
2022/08/18 03:56:06;;;;;;;9.43;6.75;;;21.60;77.60;;;;;;5071153;28;20032;-67
2022/08/18 03:58:31;;;;;;;;;;;21.60;77.50;;;;;;5071807;28;20017;-66
2022/08/18 04:00:57;;;;;;;9.07;6.32;;;21.60;77.50;;;;;;5071067;28;19958;-68
2022/08/18 04:03:23;;;;;;;13.00;8.38;;;21.60;77.40;;;;;;5052795;28;20012;-67
2022/08/18 04:05:48;;;;;;;11.02;7.45;;;21.60;77.50;;;;;;5071540;28;20027;-66
2022/08/18 04:08:14;;;;;;;9.25;6.50;;;21.60;77.50;;;;;;5070696;28;20112;-66
2022/08/18 04:10:42;;;;;;;10.23;7.25;;;21.50;77.40;;;;;;5070974;28;20028;-66
2022/08/18 04:13:08;;;;;;;9.95;6.90;;;21.60;77.50;;;;;;5086382;28;20032;-66
2022/08/18 04:15:33;;;;;;;11.43;6.65;;;21.60;77.50;;;;;;5091275;28;20393;-67
2022/08/18 04:18:03;;;;;;;10.70;6.88;;;21.50;77.40;;;;;;5089741;28;20027;-67
2022/08/18 04:20:31;;;;;;;10.55;7.03;;;21.60;77.50;;;;;;5091072;28;20436;-66
2022/08/18 04:22:57;;;;;;;10.00;7.13;;;21.50;77.40;;;;;;5090507;28;20047;-66
2022/08/18 04:25:22;;;;;;;11.35;7.32;;;21.50;77.40;;;;;;5090644;28;20059;-66
2022/08/18 04:27:48;;;;;;;13.25;8.32;;;21.50;77.40;;;;;;5089966;28;20119;-66
2022/08/18 04:30:13;;;;;;;13.10;8.48;;;21.50;77.50;;;;;;5090744;28;20439;-66
2022/08/18 04:32:39;;;;;;;10.98;7.57;;;21.50;77.50;;;;;;5090620;28;20103;-66
2022/08/18 04:35:05;;;;;;;13.38;8.50;;;21.50;77.50;;;;;;5090377;28;20035;-66
2022/08/18 04:37:31;;;;;;;13.88;9.18;;;21.50;77.50;;;;;;5090449;28;20054;-66
2022/08/18 04:39:58;;;;;;;17.35;8.68;;;21.50;77.50;;;;;;5079062;28;20054;-66
2022/08/18 04:42:24;;;;;;;15.73;8.25;;;21.50;77.50;;;;;;5069993;28;20104;-67
2022/08/18 04:44:50;;;;;;;13.60;8.73;;;21.50;77.60;;;;;;5069732;28;20020;-66
2022/08/18 04:47:16;;;;;;;13.55;9.02;;;21.50;77.60;;;;;;5079940;28;20028;-66
2022/08/18 04:49:43;;;;;;;14.20;8.60;;;21.50;77.60;;;;;;5090808;28;20024;-66
2022/08/18 04:54:54;;;;;;;17.83;10.25;;;21.50;77.60;;;;;;5090120;28;20035;-66
2022/08/18 04:57:21;;;;;;;16.10;9.27;;;21.50;77.70;;;;;;5082645;28;20028;-66
2022/08/18 04:59:50;;;;;;;16.98;11.30;;;21.40;77.60;;;;;;5069942;28;20345;-66
2022/08/18 05:02:17;;;;;;;20.27;11.43;;;21.50;77.70;;;;;;5069792;28;20030;-66
2022/08/18 05:04:46;;;;;;;16.52;9.77;;;21.50;77.70;;;;;;5069941;28;20017;-66
2022/08/18 05:07:14;;;;;;;22.83;10.77;;;21.50;77.70;;;;;;5070286;28;20469;-66
2022/08/18 05:09:43;;;;;;;17.20;11.18;;;21.40;77.70;;;;;;5069823;28;20025;-66
2022/08/18 05:12:12;;;;;;;20.13;10.98;;;21.50;77.80;;;;;;5073348;28;20071;-66
2022/08/18 05:14:38;;;;;;;17.13;10.32;;;21.50;77.70;;;;;;5089482;28;20085;-66
2022/08/18 05:17:04;;;;;;;17.77;12.00;;;21.50;77.90;;;;;;5089343;28;20028;-66
2022/08/18 07:02:54;;;;;;;36.42;18.73;;;21.50;85.80;;;;;;5105420;27;20881;-67
2022/08/18 07:05:26;;;;;;;36.00;17.40;;;21.50;86.50;;;;;;5087197;28;20036;-68
2022/08/18 07:08:12;;;;;;;34.17;15.88;;;21.50;86.80;;;;;;5079947;28;20044;-66
2022/08/18 07:10:48;;;;;;;28.23;13.95;;;21.50;86.90;;;;;;5066860;28;20082;-67
2022/08/18 07:13:26;;;;;;;27.02;13.60;;;21.50;88.10;;;;;;5070333;28;20408;-67
2022/08/18 07:16:24;;;;;;;27.25;13.60;;;21.50;87.60;;;;;;5086725;28;20024;-67
2022/08/18 07:18:50;;;;;;;25.65;13.38;;;21.50;87.50;;;;;;5070706;28;20028;-67
2022/08/18 07:21:31;;;;;;;19.85;11.80;;;21.50;87.50;;;;;;5066063;28;20033;-66
2022/08/18 07:27:01;;;;;;;23.17;12.50;;;21.50;87.50;;;;;;5107935;23;20075;-71
2022/08/18 07:29:34;;;;;;;20.25;12.23;;;21.50;87.70;;;;;;5085065;28;20389;-71
2022/08/18 07:32:21;;;;;;;17.40;10.88;;;21.50;87.60;;;;;;5084600;28;20033;-71
2022/08/18 07:34:52;;;;;;;19.10;11.52;;;21.50;87.90;;;;;;5085223;28;20025;-71
2022/08/18 07:37:58;;;;;;;18.85;11.68;;;21.50;87.70;;;;;;5085028;28;20032;-71
2022/08/18 07:40:31;;;;;;;16.90;10.32;;;21.50;87.60;;;;;;5068026;28;20048;-71
2022/08/18 07:42:59;;;;;;;17.58;10.73;;;21.50;87.80;;;;;;5068249;28;20031;-71
2022/08/18 07:45:44;;;;;;;24.42;12.63;;;21.50;88.20;;;;;;5083899;28;20123;-71
2022/08/18 07:48:09;;;;;;;19.42;11.18;;;21.50;88.10;;;;;;5075417;28;20024;-71
2022/08/18 07:51:01;;;;;;;16.42;9.10;;;21.50;88.30;;;;;;5070040;28;20481;-71
2022/08/18 07:53:38;;;;;;;17.83;10.40;;;21.50;88.60;;;;;;5062488;28;20037;-71
2022/08/18 07:56:21;;;;;;;15.27;9.95;;;21.50;88.50;;;;;;5073746;28;20024;-71
2022/08/18 07:59:10;;;;;;;13.73;9.18;;;21.50;88.20;;;;;;5074214;28;20013;-71
2022/08/18 08:02:05;;;;;;;14.10;9.20;;;21.50;88.40;;;;;;5072424;28;20020;-71
2022/08/18 10:16:55;;;;;;;7.65;5.25;;;22.60;85.90;;;;;;5173032;27;20351;-66
2022/08/18 11:35:59;;;;;;;7.55;4.57;;;22.70;82.90;;;;;;5167704;27;20146;-65
2022/08/18 11:45:16;;;;;;;8.00;5.15;;;22.80;82.70;;;;;;5133301;27;20096;-66
2022/08/18 11:48:18;;;;;;;9.43;5.55;;;22.80;82.40;;;;;;5088851;27;1284583;-65
2022/08/18 11:50:58;;;;;;;8.55;5.25;;;22.80;82.30;;;;;;5126796;27;20034;-65
2022/08/18 11:53:33;;;;;;;;;;;22.80;82.30;;;;;;5146580;27;20051;-65
2022/08/18 11:56:13;;;;;;;9.85;6.30;;;22.80;82.20;;;;;;5147332;27;19986;-65
2022/08/18 11:58:45;;;;;;;10.70;5.78;;;22.80;82.20;;;;;;5145052;27;20031;-65
2022/08/18 12:01:34;;;;;;;11.63;5.60;;;22.80;82.20;;;;;;5145470;27;20034;-66
2022/08/18 12:04:13;;;;;;;9.13;6.03;;;22.80;82.20;;;;;;5145519;27;20027;-65
2022/08/18 12:07:21;;;;;;;7.25;5.30;;;22.80;83.10;;;;;;5146850;27;20044;-66
2022/08/18 12:10:23;;;;;;;7.80;5.70;;;22.80;82.40;;;;;;5127833;27;20031;-65
2022/08/18 12:12:52;;;;;;;15.40;5.72;;;22.80;82.50;;;;;;5140519;27;20035;-66
2022/08/18 12:15:18;;;;;;;9.85;6.28;;;22.80;82.50;;;;;;5146830;27;20023;-65
2022/08/18 12:17:45;;;;;;;9.20;5.50;;;22.70;82.60;;;;;;5145656;27;20038;-65
2022/08/18 12:20:13;;;;;;;10.05;5.80;;;22.80;82.50;;;;;;5145128;27;20041;-65
2022/08/18 12:22:41;;;;;;;8.23;6.00;;;22.80;82.30;;;;;;5147999;27;20026;-65
2022/08/18 12:25:18;;;;;;;11.40;5.45;;;22.90;82.20;;;;;;5146589;27;20034;-65
2022/08/18 12:27:43;;;;;;;11.90;5.45;;;22.90;81.90;;;;;;5141799;27;20027;-65
2022/08/18 12:30:11;;;;;;;9.27;5.53;;;22.80;81.60;;;;;;5133100;27;20027;-66
2022/08/18 12:32:37;;;;;;;10.25;6.85;;;22.80;81.60;;;;;;5114339;27;20375;-65
2022/08/18 12:37:57;;;;;;;10.43;6.57;;;22.80;81.50;;;;;;5092694;22;20095;-69
2022/08/18 12:40:23;;;;;;;9.68;5.95;;;22.80;81.80;;;;;;5068213;28;20056;-69
2022/08/18 12:42:48;;;;;;;9.80;6.60;;;22.80;82.00;;;;;;5059955;28;20112;-68
2022/08/18 12:45:14;;;;;;;9.98;5.95;;;22.80;82.10;;;;;;5061173;28;20039;-69
2022/08/18 12:47:40;;;;;;;7.95;5.95;;;22.70;82.20;;;;;;5078841;28;20017;-69
2022/08/18 12:50:06;;;;;;;7.80;5.55;;;22.80;82.20;;;;;;5041803;28;20036;-69
2022/08/18 12:52:32;;;;;;;7.38;5.68;;;22.80;82.00;;;;;;5063235;28;20060;-69
2022/08/18 12:54:58;;;;;;;7.43;5.78;;;22.70;81.90;;;;;;5062311;28;20048;-69
2022/08/18 12:57:26;;;;;;;8.75;5.55;;;22.80;82.00;;;;;;5041764;28;20093;-69
2022/08/18 12:59:53;;;;;;;11.10;6.63;;;22.80;81.90;;;;;;5039906;28;20016;-69
2022/08/18 13:02:20;;;;;;;11.50;6.57;;;22.80;81.80;;;;;;5044358;28;20032;-69
2022/08/18 13:04:46;;;;;;;8.90;6.15;;;22.80;82.00;;;;;;5061393;28;20033;-69
2022/08/18 13:07:13;;;;;;;8.02;6.32;;;22.80;82.10;;;;;;5067897;28;20085;-68
2022/08/18 13:09:40;;;;;;;7.93;6.28;;;22.80;82.20;;;;;;5059295;28;20025;-69
2022/08/18 13:12:08;;;;;;;10.75;6.45;;;22.80;82.40;;;;;;5041613;28;20040;-69
2022/08/18 13:14:34;;;;;;;11.70;5.90;;;22.80;82.50;;;;;;5067103;28;20029;-68
2022/08/18 13:17:00;;;;;;;12.48;6.40;;;22.80;82.50;;;;;;5058756;28;20052;-69
2022/08/18 13:19:26;;;;;;;11.10;6.63;;;22.80;82.30;;;;;;5060850;28;20024;-69
2022/08/18 13:21:51;;;;;;;7.50;5.50;;;22.80;82.30;;;;;;5055158;28;20083;-69
2022/08/18 13:24:17;;;;;;;10.00;6.05;;;22.80;82.10;;;;;;5060314;28;20143;-69
2022/08/18 13:26:45;;;;;;;10.20;6.75;;;22.80;82.20;;;;;;5067242;28;20267;-68
2022/08/18 13:29:11;;;;;;;8.82;6.88;;;22.80;82.20;;;;;;5061223;28;20031;-69
2022/08/18 13:31:37;;;;;;;9.57;6.70;;;22.80;82.30;;;;;;5055741;28;20472;-69
2022/08/18 13:34:06;;;;;;;8.88;6.88;;;22.80;82.50;;;;;;5051559;28;20028;-69
2022/08/18 13:36:43;;;;;;;9.48;7.20;;;22.80;82.70;;;;;;5061636;28;20396;-69
2022/08/18 13:39:19;;;;;;;9.05;6.85;;;22.80;82.80;;;;;;5060926;28;20025;-71
2022/08/18 13:41:47;;;;;;;12.60;6.78;;;22.80;82.90;;;;;;5059016;28;20157;-71
2022/08/18 13:44:16;;;;;;;14.48;7.10;;;22.80;83.10;;;;;;5066402;28;20028;-71
2022/08/18 13:46:45;;;;;;;11.02;7.65;;;22.80;83.20;;;;;;5052026;28;20059;-71
2022/08/18 13:49:15;;;;;;;16.83;7.55;;;22.80;83.30;;;;;;5057022;28;20055;-72
2022/08/18 13:51:42;;;;;;;12.40;6.78;;;22.80;83.20;;;;;;5058745;28;20115;-72
2022/08/18 13:54:11;;;;;;;11.30;7.40;;;22.80;83.30;;;;;;5063475;28;20035;-71
2022/08/18 13:56:37;;;;;;;13.57;7.25;;;22.70;83.40;;;;;;5056860;28;20504;-71
2022/08/18 13:59:06;;;;;;;8.68;6.88;;;22.70;83.60;;;;;;5061136;28;20060;-71
2022/08/18 14:01:32;;;;;;;11.18;6.85;;;22.80;83.70;;;;;;5059075;28;20516;-71
2022/08/18 14:03:57;;;;;;;10.93;6.93;;;22.70;83.60;;;;;;5058436;28;20056;-71
2022/08/18 14:06:23;;;;;;;10.65;7.35;;;22.70;83.50;;;;;;5064130;28;20052;-71
2022/08/18 14:08:49;;;;;;;9.52;6.90;;;22.70;83.50;;;;;;5054647;28;20024;-71
2022/08/18 14:11:16;;;;;;;9.25;6.55;;;22.70;83.40;;;;;;5058864;28;20187;-71
2022/08/18 14:13:46;;;;;;;11.63;7.22;;;22.70;83.40;;;;;;5068290;28;20024;-72
2022/08/18 14:16:11;;;;;;;8.90;6.40;;;22.70;83.30;;;;;;5061432;28;20028;-72
2022/08/18 14:18:37;;;;;;;8.95;6.00;;;22.70;83.30;;;;;;5052165;28;20021;-71
2022/08/18 14:26:47;;;;;;;9.20;6.35;;;22.70;83.30;;;;;;5062121;28;20252;-71
2022/08/18 14:29:13;;;;;;;9.25;6.43;;;22.70;83.30;;;;;;5057273;28;20032;-71
2022/08/18 14:31:39;;;;;;;8.68;6.03;;;22.70;83.40;;;;;;5060410;28;20013;-71
2022/08/18 14:34:05;;;;;;;8.35;5.88;;;22.70;83.40;;;;;;5061860;28;20033;-71
2022/08/18 14:36:31;;;;;;;9.60;6.10;;;22.70;83.30;;;;;;5057009;28;20072;-71
2022/08/18 14:39:00;;;;;;;11.95;5.95;;;22.70;83.20;;;;;;5064398;28;20113;-71
2022/08/18 14:41:27;;;;;;;7.97;5.47;;;22.70;83.20;;;;;;5054386;28;20116;-71
2022/08/18 14:43:55;;;;;;;11.90;6.03;;;22.60;83.00;;;;;;5060041;28;20032;-71
2022/08/18 14:46:21;;;;;;;16.40;6.32;;;22.60;82.80;;;;;;5060562;28;20032;-72
2022/08/18 14:48:47;;;;;;;10.95;5.30;;;22.70;82.70;;;;;;5061199;28;20040;-71
2022/08/18 14:51:33;;;;;;;7.70;5.68;;;22.60;82.50;;;;;;5072730;28;20021;-71
2022/08/18 14:53:59;;;;;;;6.97;5.53;;;22.60;82.30;;;;;;5070894;28;20169;-71
2022/08/18 14:56:25;;;;;;;7.40;5.32;;;22.60;82.20;;;;;;5063091;28;20143;-71
2022/08/18 14:58:50;;;;;;;8.73;5.75;;;22.60;82.10;;;;;;5046598;28;20115;-71
2022/08/18 15:01:17;;;;;;;10.23;6.03;;;22.60;82.00;;;;;;5056306;28;20029;-71
2022/08/18 15:03:43;;;;;;;9.93;6.20;;;22.60;82.00;;;;;;5057355;28;20347;-71
2022/08/18 15:06:09;;;;;;;6.68;5.10;;;22.60;82.00;;;;;;5050705;28;20012;-71
2022/08/18 15:08:36;;;;;;;10.10;5.70;;;22.60;82.00;;;;;;5055645;28;20028;-71
2022/08/18 15:11:05;;;;;;;6.90;5.25;;;22.50;82.10;;;;;;5060643;28;20078;-71
2022/08/18 15:13:31;;;;;;;11.48;5.35;;;22.60;82.00;;;;;;5059907;28;20073;-71
2022/08/18 15:15:56;;;;;;;7.53;5.20;;;22.60;82.20;;;;;;5057468;28;20056;-71
2022/08/18 15:18:22;;;;;;;7.63;5.15;;;22.60;82.20;;;;;;5058268;28;20086;-71
2022/08/18 15:26:23;;;;;;;8.52;5.30;;;22.50;82.50;;;;;;5054196;28;20516;-71
2022/08/18 15:28:49;;;;;;;11.07;5.85;;;22.50;82.50;;;;;;5059618;28;20024;-71
2022/08/18 15:31:14;;;;;;;7.65;5.75;;;22.50;82.70;;;;;;5059505;28;20025;-71
2022/08/18 15:33:40;;;;;;;7.13;5.15;;;22.50;82.70;;;;;;5060570;28;20122;-71
2022/08/18 15:36:08;;;;;;;7.57;5.57;;;22.50;82.90;;;;;;5057017;28;20063;-71
2022/08/18 15:38:34;;;;;;;9.25;5.88;;;22.50;83.00;;;;;;5055846;28;20029;-71
2022/08/18 15:41:01;;;;;;;7.55;5.80;;;22.50;83.00;;;;;;5047198;28;20365;-71
2022/08/18 15:43:30;;;;;;;7.10;5.40;;;22.50;83.10;;;;;;5056851;28;20499;-71
2022/08/18 15:45:56;;;;;;;6.85;5.20;;;22.50;83.20;;;;;;5058078;28;20154;-71
2022/08/18 15:48:23;;;;;;;6.90;5.00;;;22.50;83.30;;;;;;5059524;28;20020;-71
2022/08/18 15:50:49;;;;;;;9.88;5.53;;;22.50;83.30;;;;;;5059966;28;20500;-71
2022/08/18 15:53:21;;;;;;;6.63;5.35;;;22.40;83.30;;;;;;5055580;28;20028;-71
2022/08/18 15:55:47;;;;;;;15.18;5.25;;;22.40;83.30;;;;;;5056888;28;20055;-71
2022/08/18 16:30:47;;;;;;;7.28;5.20;;;22.40;83.20;;;;;;5147389;27;20865;-67
2022/08/18 16:33:13;;;;;;;7.93;5.82;;;22.40;83.80;;;;;;5127220;27;20023;-67
2022/08/18 16:35:39;;;;;;;9.10;6.18;;;22.40;83.80;;;;;;5126741;27;20379;-66
2022/08/18 16:38:09;;;;;;;7.47;5.40;;;22.30;83.80;;;;;;5125091;27;20024;-67
2022/08/18 16:40:35;;;;;;;;;;;22.30;83.70;;;;;;5126995;27;20233;-67
2022/08/18 16:43:01;;;;;;;9.50;5.25;;;22.30;83.70;;;;;;5126706;27;19942;-67
2022/08/18 16:45:27;;;;;;;12.52;5.47;;;22.30;83.80;;;;;;5126995;27;20035;-67
2022/08/18 16:47:54;;;;;;;11.77;5.82;;;22.30;83.80;;;;;;5126717;27;20020;-66
2022/08/18 16:50:22;;;;;;;17.60;6.40;;;22.30;83.80;;;;;;5117727;28;20219;-67
2022/08/18 16:52:47;;;;;;;12.55;5.28;;;22.30;83.70;;;;;;5125370;27;20019;-67
2022/08/18 16:55:13;;;;;;;10.18;5.88;;;22.30;83.70;;;;;;5126259;27;20498;-67
2022/08/18 17:06:06;;;;;;;10.90;5.70;;;22.30;83.70;;;;;;5124846;28;20096;-67
2022/08/18 17:08:33;;;;;;;10.63;6.05;;;22.30;83.80;;;;;;5124820;27;20018;-67
2022/08/18 17:11:01;;;;;;;7.40;5.28;;;22.30;83.80;;;;;;5125041;27;20034;-67
2022/08/18 17:13:27;;;;;;;14.02;6.25;;;22.30;83.90;;;;;;5124498;27;20027;-67
2022/08/18 17:15:52;;;;;;;10.02;5.78;;;22.30;83.90;;;;;;5125701;27;20468;-67
2022/08/18 17:18:21;;;;;;;9.68;6.13;;;22.30;83.80;;;;;;5125374;28;20087;-67
2022/08/18 17:20:47;;;;;;;7.95;6.03;;;22.30;84.00;;;;;;5124425;27;20474;-67
2022/08/18 17:23:13;;;;;;;12.77;5.85;;;22.30;84.00;;;;;;5124536;28;20019;-66
2022/08/18 17:25:39;;;;;;;8.43;6.85;;;22.20;84.80;;;;;;5125293;27;20024;-67
2022/08/18 17:28:07;;;;;;;9.30;6.07;;;22.30;84.10;;;;;;5124865;27;20042;-68
2022/08/18 17:30:36;;;;;;;13.15;5.97;;;22.30;84.50;;;;;;5118369;27;20024;-68
2022/08/18 17:33:09;;;;;;;7.82;6.10;;;22.20;84.40;;;;;;5112150;28;20011;-68
2022/08/18 17:35:44;;;;;;;11.40;6.32;;;22.20;84.40;;;;;;5112792;28;20115;-68
2022/08/18 17:38:37;;;;;;;9.05;6.28;;;22.30;84.40;;;;;;5111637;27;20020;-68
2022/08/18 17:41:04;;;;;;;12.68;6.32;;;22.20;84.40;;;;;;5105740;28;20039;-68
2022/08/18 17:43:36;;;;;;;12.80;6.60;;;22.20;84.40;;;;;;5112446;28;20016;-68
2022/08/18 17:46:25;;;;;;;11.02;5.95;;;22.20;84.40;;;;;;5112825;28;20099;-68
2022/08/18 17:49:19;;;;;;;7.38;6.43;;;22.20;84.40;;;;;;5110041;28;20379;-68
2022/08/18 17:51:47;;;;;;;8.68;6.20;;;22.20;84.40;;;;;;5103446;28;20092;-68
2022/08/18 17:54:37;;;;;;;12.68;6.85;;;22.20;84.30;;;;;;5110132;28;20016;-68
2022/08/18 17:57:22;;;;;;;13.07;6.70;;;22.20;84.30;;;;;;5111626;28;20019;-68
2022/08/18 18:00:12;;;;;;;11.32;7.07;;;22.20;84.30;;;;;;5105840;28;20055;-68
2022/08/18 18:02:40;;;;;;;10.10;6.38;;;22.20;84.40;;;;;;5103934;28;20478;-68
2022/08/18 18:05:10;;;;;;;9.35;6.75;;;22.20;84.40;;;;;;5111398;28;20359;-68
2022/08/18 18:07:51;;;;;;;9.85;6.97;;;22.20;84.40;;;;;;5109999;28;20023;-68
2022/08/18 18:10:43;;;;;;;10.93;7.60;;;22.20;84.30;;;;;;5110641;28;20134;-68
2022/08/18 18:13:15;;;;;;;14.70;7.25;;;22.20;84.40;;;;;;5111398;28;20012;-68
2022/08/18 18:15:47;;;;;;;14.40;6.40;;;22.20;84.40;;;;;;5109875;28;20447;-68
2022/08/18 18:18:45;;;;;;;16.67;7.57;;;22.20;84.40;;;;;;5110471;28;20023;-68
2022/08/18 18:21:13;;;;;;;11.63;7.07;;;22.20;84.40;;;;;;5055715;28;20147;-68
2022/08/18 18:23:47;;;;;;;8.90;6.88;;;22.20;84.30;;;;;;5059855;28;20098;-68
2022/08/18 18:26:21;;;;;;;12.55;6.82;;;22.20;85.10;;;;;;5054771;28;20033;-68
2022/08/18 18:28:49;;;;;;;12.60;7.55;;;22.20;84.30;;;;;;5051205;28;20057;-68
2022/08/18 18:31:23;;;;;;;10.80;7.32;;;22.20;84.20;;;;;;5056179;28;20128;-68
2022/08/18 18:34:28;;;;;;;14.25;7.78;;;22.20;84.20;;;;;;5060094;28;20525;-68
2022/08/18 18:36:55;;;;;;;9.50;6.72;;;22.20;84.10;;;;;;5050390;28;20127;-68
2022/08/18 18:39:22;;;;;;;13.93;8.02;;;22.20;84.10;;;;;;5054661;28;20044;-68
2022/08/18 18:41:50;;;;;;;9.25;7.03;;;22.20;84.10;;;;;;5054542;28;20048;-68
2022/08/18 18:44:33;;;;;;;10.65;7.25;;;22.20;84.00;;;;;;5056355;28;20048;-68
2022/08/18 18:47:14;;;;;;;12.40;7.28;;;22.20;83.90;;;;;;5053044;28;20024;-68
2022/08/18 18:50:17;;;;;;;11.10;7.70;;;22.10;83.80;;;;;;5048384;28;20104;-68
2022/08/18 18:53:23;;;;;;;13.27;7.35;;;22.10;83.80;;;;;;5003663;28;20213;-68
2022/08/18 18:56:03;;;;;;;14.73;7.50;;;22.10;83.70;;;;;;4985303;28;20092;-68
2022/08/18 18:58:35;;;;;;;12.70;7.50;;;22.10;83.70;;;;;;5006892;28;20041;-68
2022/08/18 19:14:39;;;;;;;14.32;7.63;;;22.10;83.60;;;;;;4987337;28;20313;-68
2022/08/18 19:17:17;;;;;;;10.48;7.90;;;22.10;83.70;;;;;;4983266;28;20105;-68
2022/08/18 19:19:58;;;;;;;11.80;8.88;;;22.10;83.60;;;;;;4985726;28;20700;-68
2022/08/18 19:22:49;;;;;;;17.00;8.75;;;22.10;83.50;;;;;;4986625;28;20163;-69
2022/08/18 19:25:36;;;;;;;15.57;9.43;;;22.10;83.50;;;;;;4984939;28;20177;-68
2022/08/18 19:28:25;;;;;;;15.27;10.20;;;22.10;83.50;;;;;;4982786;28;20347;-68
2022/08/18 20:11:22;;;;;;;16.15;10.68;;;22.00;82.80;;;;;;5109297;22;20523;-68
2022/08/18 20:13:48;;;;;;;18.30;10.80;;;22.00;82.80;;;;;;5069294;28;20594;-67
2022/08/18 20:16:25;;;;;;;14.73;11.02;;;22.00;82.80;;;;;;5069904;28;20489;-67
2022/08/18 20:18:51;;;;;;;17.33;10.82;;;21.90;82.80;;;;;;5053671;28;20043;-67
2022/08/18 20:21:18;;;;;;;18.35;11.60;;;22.00;82.90;;;;;;5070863;28;20031;-67
2022/08/18 20:24:23;;;;;;;16.08;10.68;;;22.00;82.90;;;;;;5051337;28;20016;-67